Aérodrome :
LOGIN :

S'inscrire | Disclaimer

   EN    FR    IT 

 










Légende :    VFR   VFR Marginal   IFR   IFR Intensif   IFR Très Intensif
Visi : 
Plafond : 
>= 8 km
>= 3000ft
5 à 8 km
1000 à 3000 ft
1500m à 5 km
500 à 1000 ft
800 à 1500m
200 à 500 ft
< 800m
< 200 ft
Symboles :   Orages  Brouillard  Fortes neiges  Fortes précipitations  Vent > 20 kt
SIGMETs :   Divers  Orages  Givrage  Turbulence  Onde Orograph.  Cendres Volcan.






- Altitude de l'aérodrome : 200 ft
- Code IATA : TCE


LRTC - Tulcea

DERNIER METAR :
  • 042000Z AUTO 10009KT 9999 FEW020/// BKN025/// BKN029/// 11/10 Q1020

METARs EXPIRÉS :
  • 041930Z AUTO 09008KT 9999 BKN021/// BKN025/// 11/10 Q1020
  • 041900Z AUTO 10009KT 9999 FEW017/// BKN027/// BKN031/// 11/10 Q1020
  • 041830Z AUTO 10010KT 9999 SCT027/// OVC032/// 11/10 Q1020
  • 041800Z AUTO 08009KT 8000 SCT026/// BKN030/// 10/10 Q1020
  • 041730Z 08010KT 9000 BKN028 10/09 Q1019

TAF TAF LRTC
Valide du 04 à 15h jusqu'au 05 à 00h UTC


041400Z 0415/0500 10007KT 9999 BKN035
BECMG 0415/0417 BKN010



MET'MAP, la Météo Aéronautique d'un coup d'oeil ! - Copyright ORBIFLY Décembre 2007 - Disclaimer

ORBIFLY MET'MAP TEAM :

Programmation & Développement : Alexandra Zaïnal
Sur une idée originale de : Baudouin d'Aumeries
Assistance à la programmation : Marc-Olivier Méhu
Soutien technique & logistique : Manuel Goepfert

Contact : metmap@orbifly.com




SOURCES & CREDITS :

   NOAA